Nearby METAR Reports

Here are local weather reports from nearby weather stations and airports.

KHFD - Hartford/Brainar, Connecticut, USA
Distance from station: NE 5mi, 8km
Updated: Mon, 03/01/21 7:53pm EST
Few Clouds
Few Clouds
 Wind from WNW
Wind: WNW 8 mph , 13 km/h
Temperature: 36°F , 2°C
Wind Chill: 30°F , -1°C
Dew Point: 18°F , -8°C
Humidity: 48%
Barometer: 29.71 inHg , 1006.1 hPa
Clouds: Few Clouds
Visibility: 10 miles , 16 km
Cloud details: Few Clouds 6000 ft
2021/03/02 00:53 KHFD 020053Z 30007KT 10SM FEW060 02/M08 A2971 RMK AO2 SLP059 T00221083
KMMK - Meriden, Connecticut, USA
Distance from station: SSW 13mi, 21km
Updated: Mon, 03/01/21 7:53pm EST
Few Clouds
Few Clouds
 Wind from WNW
Wind: WNW 10 mph , 17 km/h
Temperature: 37°F , 3°C
Wind Chill: 30°F , -1°C
Dew Point: 16°F , -9°C
Humidity: 41%
Barometer: 29.71 inHg , 1006.1 hPa
Clouds: Few Clouds
Visibility: 10 miles , 16 km
Cloud details: Few Clouds 8000 ft
2021/03/02 00:53 KMMK 020053Z AUTO 29009KT 240V310 10SM FEW080 03/M09 A2971 RMK AO2 SLP060 T00281089
 
KBDL - Windsor Locks, Connecticut, USA
Distance from station: N 17mi, 28km
Updated: Mon, 03/01/21 7:51pm EST
Few Clouds
Few Clouds
 Wind from WNW
Wind: WNW 15 mph , 24 km/h, Gust: 29 mph , 46 km/h
Temperature: 34°F , 1°C
Wind Chill: 24°F , -4°C
Dew Point: 16°F , -9°C
Humidity: 48%
Barometer: 29.69 inHg , 1005.4 hPa
Clouds: Few Clouds
Visibility: 10 miles , 16 km
Cloud details: Few Clouds 5500 ft
2021/03/02 00:51 KBDL 020051Z 30013G25KT 10SM FEW055 01/M09 A2969 RMK AO2 SLP057 T00061089
KSNC - Chester, Connecticut, USA
Distance from station: SSE 24mi, 38km
Updated: Mon, 03/01/21 8:15pm EST
Clear
Clear
 Wind from WNW
Wind: WNW 7 mph , 11 km/h, Gust: 14 mph , 22 km/h
Barometer: 29.69 inHg , 1005.4 hPa
Clouds: Clear
Visibility: 10 miles , 16 km
2021/03/02 01:15 KSNC 020115Z AUTO 29006G12KT 10SM CLR A2969 RMK AO2
 
KOXC - Oxford/Waterbury, Connecticut, USA
Distance from station: SW 26mi, 42km
Updated: Mon, 03/01/21 7:51pm EST
Overcast
Overcast
 Wind from WNW
Wind: WNW 8 mph , 13 km/h
Temperature: 34°F , 1°C
Wind Chill: 27°F , -3°C
Dew Point: 19°F , -7°C
Humidity: 56%
Barometer: 29.70 inHg , 1005.8 hPa
Clouds: Overcast
Visibility: 10 miles , 16 km
Cloud details: Mostly cloudy 5500 ft
Overcast 7000 ft
2021/03/02 00:51 KOXC 020051Z 29007KT 10SM BKN055 OVC070 01/M07 A2970 RMK AO2 SLP074 T00061067
KIJD - Willimantic, Connecticut, USA
Distance from station: E 28mi, 45km
Updated: Mon, 03/01/21 7:52pm EST
Clear
Clear
 Wind from NW
Wind: NW 10 mph , 17 km/h, Gust: 16 mph , 26 km/h
Temperature: 34°F , 1°C
Wind Chill: 26°F , -3°C
Dew Point: 18°F , -8°C
Humidity: 51%
Barometer: 29.68 inHg , 1005.1 hPa
Clouds: Clear
Visibility: 10 miles , 16 km
2021/03/02 00:52 KIJD 020052Z AUTO 32009G14KT 10SM CLR 01/M08 A2968 RMK AO2 SLP053 T00111083
 
KHVN - New Haven/Tweed, Connecticut, USA
Distance from station: SSW 30mi, 48km
Updated: Mon, 03/01/21 7:53pm EST
Clear
Clear
 Wind from WNW
Wind: WNW 14 mph , 22 km/h, Gust: 24 mph , 39 km/h
Temperature: 39°F , 4°C
Wind Chill: 31°F , -1°C
Dew Point: 19°F , -7°C
Humidity: 45%
Barometer: 29.72 inHg , 1006.4 hPa
Clouds: Clear
Visibility: 10 miles , 16 km
2021/03/02 00:53 KHVN 020053Z 29012G21KT 260V320 10SM CLR 04/M07 A2972 RMK AO2 SLP062 T00441067
KBAF - Westfield, Massachusetts, USA
Distance from station: 0 33mi, 54km
Updated: Mon, 03/01/21 7:53pm EST
Few Clouds
Few Clouds
 Wind from WNW
Wind: WNW 23 mph , 37 km/h, Gust: 31 mph , 50 km/h
Temperature: 34°F , 1°C
Wind Chill: 22°F , -6°C
Dew Point: 16°F , -9°C
Humidity: 48%
Barometer: 29.67 inHg , 1004.7 hPa
Clouds: Few Clouds
Visibility: 10 miles , 16 km
Cloud details: Few Clouds 5000 ft
Few Clouds 6500 ft
2021/03/02 00:53 KBAF 020053Z 30020G27KT 10SM FEW050 FEW065 01/M09 A2967 RMK AO2 PK WND 30027/0053 SLP054 T00061089
 
KCEF - Chicopee/Westove, Massachusetts, USA
Distance from station: NNE 37mi, 60km
Updated: Mon, 03/01/21 7:56pm EST
Mostly cloudy
Mostly cloudy
 Wind from WNW
Wind: WNW 14 mph , 22 km/h, Gust: 23 mph , 37 km/h
Temperature: 32°F , 0°C
Wind Chill: 22°F , -6°C
Dew Point: 16°F , -9°C
Humidity: 51%
Barometer: 29.66 inHg , 1004.4 hPa
Clouds: Mostly cloudy
Visibility: 10 miles , 16 km
Cloud details: Mostly cloudy 5000 ft
2021/03/02 00:56 KCEF 020056Z 30012G20KT 10SM BKN050 00/M09 A2966 RMK AO2A PK WND 29029/2358 SLP052 T00031094
KBDR - Bridgeport, Connecticut, USA
Distance from station: SSW 42mi, 67km
Updated: Mon, 03/01/21 7:52pm EST
Clear
Clear
 Wind from W
Wind: W 14 mph , 22 km/h, Gust: 25 mph , 41 km/h
Temperature: 39°F , 4°C
Wind Chill: 31°F , -1°C
Dew Point: 18°F , -8°C
Humidity: 42%
Barometer: 29.73 inHg , 1006.8 hPa
Clouds: Clear
Visibility: 10 miles , 16 km
2021/03/02 00:52 KBDR 020052Z 28012G22KT 10SM CLR 04/M08 A2973 RMK AO2 PK WND 29028/0006 SLP067 T00391078
 
KGON - Groton/New Londo, Connecticut, USA
Distance from station: SE 42mi, 68km
Updated: Mon, 03/01/21 7:56pm EST
Clear
Clear
 Wind from WNW
Wind: WNW 14 mph , 22 km/h, Gust: 23 mph , 37 km/h
Temperature: 37°F , 3°C
Wind Chill: 28°F , -2°C
Dew Point: 19°F , -7°C
Humidity: 48%
Barometer: 29.68 inHg , 1005.1 hPa
Clouds: Clear
Visibility: 10 miles , 16 km
2021/03/02 00:56 KGON 020056Z 29012G20KT 10SM CLR 03/M07 A2968 RMK AO2 SLP051 T00281067
KDXR - Danbury, Connecticut, USA
Distance from station: WSW 45mi, 73km
Updated: Mon, 03/01/21 7:53pm EST
Few Clouds
Few Clouds
 Wind from WNW
Wind: WNW 18 mph , 30 km/h, Gust: 30 mph , 48 km/h
Temperature: 37°F , 3°C
Wind Chill: 27°F , -3°C
Dew Point: 18°F , -8°C
Humidity: 45%
Barometer: 29.73 inHg , 1006.8 hPa
Clouds: Few Clouds
Visibility: 10 miles , 16 km
Cloud details: Few Clouds 6000 ft
2021/03/02 00:53 KDXR 020053Z 30016G26KT 10SM FEW060 03/M08 A2973 RMK AO2 PK WND 29028/2356 SLP071 T00281078